createdAt,value
2018-09-13T00:01:35.696Z,1.50
2018-09-13T00:04:02.625Z,1.70
2018-09-13T00:06:29.569Z,2.27
2018-09-13T00:08:56.912Z,1.33
2018-09-13T00:11:23.873Z,1.10
2018-09-13T00:13:50.825Z,1.40
2018-09-13T00:16:18.068Z,2.40
2018-09-13T00:18:45.056Z,1.00
2018-09-13T00:21:12.085Z,1.17
2018-09-13T00:23:39.374Z,2.63
2018-09-13T00:26:06.337Z,1.10
2018-09-13T00:28:33.362Z,1.23
2018-09-13T00:31:00.716Z,2.30
2018-09-13T00:33:27.741Z,1.40
2018-09-13T00:35:54.857Z,2.27
2018-09-13T00:38:22.380Z,1.80
2018-09-13T00:40:49.461Z,2.07
2018-09-13T00:43:16.590Z,3.60
2018-09-13T00:45:43.962Z,2.03
2018-09-13T00:48:10.932Z,2.33
2018-09-13T00:50:37.926Z,1.00
2018-09-13T00:53:05.188Z,1.40
2018-09-13T00:55:32.174Z,2.13
2018-09-13T00:57:59.238Z,2.07
2018-09-13T01:00:26.493Z,1.40
2018-09-13T01:02:53.556Z,2.47
2018-09-13T01:05:20.610Z,1.60
2018-09-13T01:07:47.997Z,1.97
2018-09-13T01:10:15.098Z,2.33
2018-09-13T01:12:42.205Z,1.80
2018-09-13T01:15:09.534Z,2.00
2018-09-13T01:17:36.624Z,1.40
2018-09-13T01:20:03.739Z,1.53
2018-09-13T01:22:31.076Z,1.63
2018-09-13T01:24:58.272Z,1.63
2018-09-13T01:27:26.720Z,2.33
2018-09-13T01:29:54.226Z,1.17
2018-09-13T01:32:21.297Z,1.20
2018-09-13T01:34:48.310Z,1.97
2018-09-13T01:37:17.337Z,1.73
2018-09-13T01:39:44.313Z,2.33
2018-09-13T01:44:45.653Z,1.43
2018-09-13T01:47:12.829Z,1.87
2018-09-13T01:49:39.913Z,1.43
2018-09-13T01:52:07.267Z,1.03
2018-09-13T01:54:34.770Z,1.40
2018-09-13T01:57:01.772Z,1.60
2018-09-13T01:59:29.030Z,1.27
2018-09-13T02:01:56.009Z,1.60
2018-09-13T02:04:23.023Z,1.40
2018-09-13T02:06:50.054Z,1.13
2018-09-13T02:09:17.064Z,1.90
2018-09-13T02:11:44.104Z,1.60
2018-09-13T02:14:11.397Z,1.93
2018-09-13T02:16:39.167Z,1.40
2018-09-13T02:19:06.206Z,1.20
2018-09-13T02:21:33.494Z,1.30
2018-09-13T02:24:00.485Z,2.00
2018-09-13T02:26:27.473Z,1.20
2018-09-13T02:28:54.751Z,1.40
2018-09-13T02:31:21.739Z,1.40
2018-09-13T02:33:48.668Z,1.50
2018-09-13T02:36:16.089Z,2.37
2018-09-13T02:38:43.101Z,1.37
2018-09-13T02:41:10.043Z,1.47
2018-09-13T02:43:37.015Z,1.23
2018-09-13T02:46:04.005Z,1.77
2018-09-13T02:48:30.965Z,1.50
2018-09-13T02:50:58.230Z,1.90
2018-09-13T02:53:25.199Z,1.67
2018-09-13T02:55:52.163Z,1.97
2018-09-13T02:58:19.176Z,1.60
2018-09-13T03:00:46.175Z,1.40
2018-09-13T03:03:13.179Z,2.27
2018-09-13T03:05:40.495Z,1.57
2018-09-13T03:08:07.454Z,1.70
2018-09-13T03:10:34.433Z,1.90
2018-09-13T03:13:01.775Z,1.30
2018-09-13T03:15:28.738Z,1.63
2018-09-13T03:17:55.803Z,1.40
2018-09-13T03:20:23.116Z,1.00
2018-09-13T03:22:50.102Z,1.20
2018-09-13T03:25:17.044Z,1.60
2018-09-13T03:27:44.009Z,0.90
2018-09-13T03:30:11.416Z,1.30
2018-09-13T03:32:38.431Z,1.40
2018-09-13T03:35:05.479Z,1.00
2018-09-13T03:37:32.449Z,1.07
2018-09-13T03:39:59.372Z,1.70
2018-09-13T03:42:26.682Z,1.60
2018-09-13T03:44:54.002Z,1.30
2018-09-13T03:47:20.977Z,1.13
2018-09-13T03:49:48.305Z,1.30
2018-09-13T03:52:15.292Z,1.20
2018-09-13T03:54:42.238Z,1.47
2018-09-13T03:57:09.321Z,1.20
2018-09-13T03:59:36.407Z,1.30
2018-09-13T04:02:03.345Z,1.27
2018-09-13T04:04:30.611Z,1.30
2018-09-13T04:06:57.583Z,1.33
2018-09-13T04:09:24.717Z,1.80
2018-09-13T04:11:51.987Z,13.30
2018-09-13T04:14:19.003Z,2.30
2018-09-13T04:16:45.989Z,6.80
2018-09-13T04:19:13.394Z,10.40
2018-09-13T04:21:40.406Z,3.33
2018-09-13T04:24:07.336Z,4.80
2018-09-13T04:26:34.266Z,1.97
2018-09-13T04:29:01.240Z,2.67
2018-09-13T04:31:28.222Z,4.03
2018-09-13T04:33:55.474Z,1.63
2018-09-13T04:36:22.546Z,10.10
2018-09-13T04:38:49.551Z,2.90
2018-09-13T04:41:16.971Z,31.97
2018-09-13T04:43:43.960Z,2.33
2018-09-13T04:46:11.001Z,3.30
2018-09-13T04:48:37.999Z,1.90
2018-09-13T04:51:05.187Z,3.70
2018-09-13T04:53:32.784Z,2.30
2018-09-13T04:55:59.958Z,2.60
2018-09-13T04:58:26.937Z,1.67
2018-09-13T05:00:53.983Z,4.17
2018-09-13T05:03:20.940Z,4.47
2018-09-13T05:05:47.951Z,1.83
2018-09-13T05:08:15.338Z,2.60
2018-09-13T05:10:42.255Z,2.87
2018-09-13T05:13:09.214Z,1.77
2018-09-13T05:15:36.652Z,4.40
2018-09-13T05:18:03.656Z,1.43
2018-09-13T05:20:30.649Z,1.70
2018-09-13T05:22:57.790Z,1.60
2018-09-13T05:25:24.717Z,1.87
2018-09-13T05:27:51.677Z,2.23
2018-09-13T05:30:19.011Z,2.40
2018-09-13T05:32:45.975Z,3.10
2018-09-13T05:35:13.148Z,1.70
2018-09-13T05:37:40.431Z,2.83
2018-09-13T05:40:07.377Z,2.07
2018-09-13T05:42:34.317Z,2.70
2018-09-13T05:45:01.632Z,2.20
2018-09-13T05:47:28.637Z,1.90
2018-09-13T05:49:55.642Z,2.33
2018-09-13T05:52:23.050Z,2.33
2018-09-13T05:54:49.984Z,2.03
2018-09-13T05:57:16.994Z,1.80
2018-09-13T05:59:44.323Z,1.90
2018-09-13T06:02:11.301Z,2.40
2018-09-13T06:04:38.307Z,2.00
2018-09-13T06:07:05.393Z,2.20
2018-09-13T06:09:32.593Z,2.83
2018-09-13T06:11:59.510Z,4.57
2018-09-13T06:14:26.887Z,2.07
2018-09-13T06:16:53.919Z,2.70
2018-09-13T06:19:20.878Z,3.60
2018-09-13T06:21:47.845Z,3.00
2018-09-13T06:24:14.825Z,1.90
2018-09-13T06:26:41.811Z,3.10
2018-09-13T06:29:09.173Z,15.80
2018-09-13T06:31:36.129Z,2.03
2018-09-13T06:34:03.086Z,3.90
2018-09-13T06:36:30.476Z,1.83
2018-09-13T06:38:57.419Z,2.93
2018-09-13T06:41:24.370Z,2.73
2018-09-13T06:43:51.358Z,2.80
2018-09-13T06:46:18.297Z,3.07
2018-09-13T06:48:45.517Z,2.40
2018-09-13T06:51:12.520Z,1.77
2018-09-13T06:53:39.491Z,2.23
2018-09-13T06:56:06.457Z,1.83
2018-09-13T06:58:33.789Z,1.70
2018-09-13T07:01:00.993Z,2.30
2018-09-13T07:03:27.995Z,1.97
2018-09-13T07:05:55.298Z,1.30
2018-09-13T07:08:22.265Z,2.33
2018-09-13T07:10:49.374Z,1.40
2018-09-13T07:13:16.349Z,2.40
2018-09-13T07:15:43.325Z,1.87
2018-09-13T07:18:10.380Z,1.87
2018-09-13T07:20:44.546Z,2.43
2018-09-13T07:23:11.477Z,2.30
2018-09-13T07:25:38.413Z,1.73
2018-09-13T07:28:05.698Z,1.23
2018-09-13T07:30:32.662Z,2.57
2018-09-13T07:32:59.613Z,2.57
2018-09-13T07:35:26.598Z,3.50
2018-09-13T07:37:54.039Z,3.20
2018-09-13T07:40:21.009Z,2.10
2018-09-13T07:42:48.378Z,1.90
2018-09-13T07:45:15.365Z,2.00
2018-09-13T07:47:42.337Z,2.03
2018-09-13T07:50:09.765Z,4.07
2018-09-13T07:52:36.728Z,3.53
2018-09-13T07:55:03.903Z,2.90
2018-09-13T07:57:31.195Z,2.53
2018-09-13T07:59:58.198Z,2.70
2018-09-13T08:02:25.254Z,3.30
2018-09-13T08:04:52.303Z,2.00
2018-09-13T08:07:19.328Z,1.80
2018-09-13T08:09:46.369Z,2.03
2018-09-13T08:12:13.768Z,2.40
2018-09-13T08:14:40.812Z,2.50
2018-09-13T08:17:07.745Z,2.73
2018-09-13T08:19:35.330Z,2.17
2018-09-13T08:22:02.504Z,3.20
2018-09-13T08:24:29.529Z,3.00
2018-09-13T08:26:56.818Z,3.20
2018-09-13T08:29:23.826Z,3.60
2018-09-13T08:31:50.790Z,2.97
2018-09-13T08:34:18.059Z,3.80
2018-09-13T08:36:45.227Z,3.20
2018-09-13T08:39:12.208Z,2.60
2018-09-13T08:41:39.611Z,4.60
2018-09-13T08:44:09.337Z,7.37
2018-09-13T08:46:36.513Z,4.00
2018-09-13T08:49:03.968Z,3.07
2018-09-13T08:51:30.934Z,3.27
2018-09-13T08:53:57.893Z,4.23
2018-09-13T08:56:24.951Z,4.30
2018-09-13T08:58:51.944Z,3.00
2018-09-13T09:01:18.910Z,4.30
2018-09-13T09:03:46.190Z,6.20
2018-09-13T09:06:13.205Z,4.07
2018-09-13T09:08:40.172Z,5.67
2018-09-13T09:11:07.168Z,4.20
2018-09-13T09:13:34.298Z,3.03
2018-09-13T09:16:01.255Z,2.60
2018-09-13T09:18:28.608Z,3.30
2018-09-13T09:20:55.637Z,3.30
2018-09-13T09:23:22.618Z,3.20
2018-09-13T09:25:50.018Z,6.50
2018-09-13T09:28:17.031Z,2.40
2018-09-13T09:30:44.110Z,2.67
2018-09-13T09:33:11.580Z,3.93
2018-09-13T09:35:38.587Z,3.63
2018-09-13T09:38:05.558Z,3.10
2018-09-13T09:40:32.857Z,4.97
2018-09-13T09:42:59.865Z,4.53
2018-09-13T09:45:26.928Z,6.70
2018-09-13T09:47:54.421Z,5.30
2018-09-13T09:50:21.514Z,4.50
2018-09-13T09:52:48.465Z,4.10
2018-09-13T09:55:21.144Z,3.37
2018-09-13T09:57:48.273Z,3.90
2018-09-13T10:00:15.311Z,3.30
2018-09-13T10:02:42.641Z,11.77
2018-09-13T10:05:09.585Z,5.80
2018-09-13T10:07:36.624Z,3.80
2018-09-13T10:10:04.059Z,3.50
2018-09-13T10:12:31.178Z,6.70
2018-09-13T10:15:04.477Z,2.90
2018-09-13T10:17:37.441Z,4.20
2018-09-13T10:20:10.488Z,8.60
2018-09-13T10:22:43.299Z,4.70
2018-09-13T10:25:16.468Z,4.17
2018-09-13T10:27:49.422Z,4.63
2018-09-13T10:30:22.617Z,6.07
2018-09-13T10:32:55.592Z,8.10
2018-09-13T10:35:28.979Z,5.80
2018-09-13T10:38:01.920Z,3.03
2018-09-13T10:40:35.057Z,5.00
2018-09-13T10:43:07.975Z,4.20
2018-09-13T10:45:41.105Z,6.10
2018-09-13T10:48:14.102Z,3.73
2018-09-13T10:50:47.034Z,3.90
2018-09-13T10:53:19.023Z,3.70
2018-09-13T10:55:46.189Z,14.40
2018-09-13T10:58:13.654Z,5.20
2018-09-13T11:00:40.742Z,5.70
2018-09-13T11:03:07.768Z,4.63
2018-09-13T11:05:35.180Z,5.30
2018-09-13T11:08:02.145Z,4.80
2018-09-13T11:10:29.152Z,9.70
2018-09-13T11:13:07.064Z,3.83
2018-09-13T11:15:34.989Z,2.80
2018-09-13T11:18:02.801Z,11.00
2018-09-13T11:20:30.450Z,3.67
2018-09-13T11:22:57.532Z,5.70
2018-09-13T11:25:24.848Z,6.00
2018-09-13T11:27:52.362Z,4.07
2018-09-13T11:30:19.481Z,2.33
2018-09-13T11:32:46.558Z,3.47
2018-09-13T11:35:13.998Z,2.50
2018-09-13T11:37:41.091Z,3.80
2018-09-13T11:40:08.418Z,2.17
2018-09-13T11:42:35.826Z,4.57
2018-09-13T11:45:03.003Z,9.43
2018-09-13T11:47:30.064Z,5.73
2018-09-13T11:49:57.430Z,2.27
2018-09-13T11:52:24.368Z,3.50
2018-09-13T11:54:51.345Z,3.40
2018-09-13T11:57:18.693Z,7.27
2018-09-13T11:59:45.637Z,5.60
2018-09-13T12:02:12.643Z,2.93
2018-09-13T12:04:39.934Z,2.60
2018-09-13T12:07:06.951Z,3.03
2018-09-13T12:09:34.072Z,4.10
2018-09-13T12:12:01.369Z,12.70
2018-09-13T12:14:28.418Z,4.93
2018-09-13T12:16:55.390Z,3.90
2018-09-13T12:19:22.682Z,1.73
2018-09-13T12:21:49.734Z,4.03
2018-09-13T12:24:16.719Z,3.30
2018-09-13T12:26:43.977Z,4.40
2018-09-13T12:29:11.009Z,2.60
2018-09-13T12:31:38.085Z,3.43
2018-09-13T12:34:05.502Z,4.77
2018-09-13T12:36:32.509Z,4.80
2018-09-13T12:38:59.622Z,14.33
2018-09-13T12:41:26.952Z,3.77
2018-09-13T12:43:54.134Z,1.80
2018-09-13T12:46:21.125Z,2.33
2018-09-13T12:48:48.443Z,3.60
2018-09-13T12:51:15.503Z,2.30
2018-09-13T12:53:42.714Z,4.70
2018-09-13T12:56:10.210Z,4.30
2018-09-13T12:58:37.304Z,2.03
2018-09-13T13:01:04.545Z,3.80
2018-09-13T13:03:32.102Z,3.50
2018-09-13T13:05:59.320Z,2.20
2018-09-13T13:08:26.466Z,6.60
2018-09-13T13:10:53.894Z,3.47
2018-09-13T13:13:20.901Z,3.70
2018-09-13T13:15:47.870Z,2.37
2018-09-13T13:18:15.372Z,2.60
2018-09-13T13:20:42.359Z,9.83
2018-09-13T13:23:09.490Z,7.50
2018-09-13T13:25:36.838Z,4.23
2018-09-13T13:28:03.907Z,2.87
2018-09-13T13:30:30.961Z,2.67
2018-09-13T13:32:58.416Z,2.40
2018-09-13T13:35:25.397Z,2.10
2018-09-13T13:37:52.400Z,2.40
2018-09-13T13:40:20.049Z,2.30
2018-09-13T13:42:47.112Z,2.43
2018-09-13T13:45:14.200Z,4.33
2018-09-13T13:47:41.511Z,2.80
2018-09-13T13:50:08.538Z,2.40
2018-09-13T13:52:35.562Z,3.00
2018-09-13T13:55:02.986Z,2.40
2018-09-13T13:57:29.949Z,3.53
2018-09-13T13:59:56.982Z,2.33
2018-09-13T14:02:24.298Z,3.10
2018-09-13T14:04:51.645Z,12.27
2018-09-13T14:07:18.882Z,2.97
2018-09-13T14:09:47.044Z,6.87
2018-09-13T14:12:16.363Z,3.03
2018-09-13T14:14:43.437Z,5.70
2018-09-13T14:17:10.800Z,3.77
2018-09-13T14:19:37.841Z,3.67
2018-09-13T14:22:04.983Z,3.40
2018-09-13T14:24:32.338Z,4.20
2018-09-13T14:26:59.479Z,2.80
2018-09-13T14:29:26.453Z,2.20
2018-09-13T14:31:53.802Z,2.83
2018-09-13T14:34:20.837Z,2.70
2018-09-13T14:36:49.766Z,3.90
2018-09-13T14:39:22.422Z,4.07
2018-09-13T14:41:49.685Z,4.97
2018-09-13T14:44:17.999Z,3.30
2018-09-13T14:46:45.430Z,2.90
2018-09-13T14:49:13.654Z,4.50
2018-09-13T14:51:40.674Z,6.33
2018-09-13T14:54:08.032Z,3.10
2018-09-13T14:56:35.099Z,2.83
2018-09-13T14:59:02.233Z,3.37
2018-09-13T15:01:29.733Z,3.47
2018-09-13T15:03:56.899Z,4.60
2018-09-13T15:06:24.196Z,3.67
2018-09-13T15:08:51.765Z,3.70
2018-09-13T15:11:18.895Z,6.07
2018-09-13T15:13:47.108Z,4.30
2018-09-13T15:16:14.536Z,3.10
2018-09-13T15:19:00.043Z,4.20
2018-09-13T15:21:27.246Z,2.97
2018-09-13T15:23:54.404Z,3.70
2018-09-13T15:26:21.543Z,2.43
2018-09-13T15:28:48.915Z,2.20
2018-09-13T15:31:15.961Z,2.50
2018-09-13T15:33:43.088Z,3.47
2018-09-13T15:36:11.628Z,3.93
2018-09-13T15:38:38.734Z,4.20
2018-09-13T15:41:05.950Z,3.37
2018-09-13T15:43:33.474Z,4.20
2018-09-13T15:46:00.728Z,3.83
2018-09-13T15:48:27.892Z,5.70
2018-09-13T15:50:55.297Z,6.03
2018-09-13T15:53:22.648Z,4.37
2018-09-13T15:55:49.754Z,4.83
2018-09-13T15:58:25.370Z,5.80
2018-09-13T16:00:52.509Z,4.70
2018-09-13T16:03:19.702Z,5.00
2018-09-13T16:05:47.110Z,5.70
2018-09-13T16:08:14.272Z,7.77
2018-09-13T16:10:41.461Z,7.00
2018-09-13T16:13:09.078Z,6.30
2018-09-13T16:15:36.220Z,7.13
2018-09-13T16:18:03.406Z,21.00
2018-09-13T16:20:30.945Z,15.47
2018-09-13T16:22:58.095Z,6.83
2018-09-13T16:25:25.323Z,8.63
2018-09-13T16:27:52.797Z,8.80
2018-09-13T16:30:19.972Z,11.27
2018-09-13T16:32:47.240Z,6.10
2018-09-13T16:35:14.857Z,6.60
2018-09-13T16:37:48.270Z,7.40
2018-09-13T16:40:21.502Z,9.43
2018-09-13T16:42:54.351Z,6.60
2018-09-13T16:45:26.928Z,6.70
2018-09-13T16:47:57.915Z,9.07
2018-09-13T16:50:25.878Z,8.77
2018-09-13T16:53:00.484Z,8.50
2018-09-13T16:55:27.693Z,11.80
2018-09-13T16:57:55.393Z,13.70
2018-09-13T17:00:24.273Z,13.27
2018-09-13T17:02:52.160Z,8.90
2018-09-13T17:05:19.863Z,8.07
2018-09-13T17:07:46.998Z,6.73
2018-09-13T17:10:14.273Z,7.60
2018-09-13T17:12:41.921Z,7.37
2018-09-13T17:15:09.297Z,9.70
2018-09-13T17:17:36.567Z,9.30
2018-09-13T17:20:03.981Z,9.23
2018-09-13T17:22:31.220Z,6.17
2018-09-13T17:24:58.398Z,8.23
2018-09-13T17:27:26.033Z,6.80
2018-09-13T17:29:53.406Z,8.10
2018-09-13T17:32:20.691Z,5.77
2018-09-13T17:34:48.397Z,7.27
2018-09-13T17:37:15.583Z,7.00
2018-09-13T17:39:42.599Z,12.77
2018-09-13T17:42:09.979Z,7.90
2018-09-13T17:44:36.948Z,6.37
2018-09-13T17:47:04.046Z,5.97
2018-09-13T17:49:31.368Z,7.50
2018-09-13T17:51:58.386Z,6.90
2018-09-13T17:54:25.471Z,5.20
2018-09-13T17:56:52.846Z,7.07
2018-09-13T17:59:20.041Z,5.23
2018-09-13T18:01:47.069Z,5.50
2018-09-13T18:04:14.406Z,6.93
2018-09-13T18:06:41.386Z,9.20
2018-09-13T18:09:09.084Z,9.63
2018-09-13T18:11:36.329Z,13.20
2018-09-13T18:14:03.638Z,8.90
2018-09-13T18:16:30.670Z,7.30
2018-09-13T18:18:58.151Z,8.40
2018-09-13T18:21:25.246Z,10.93
2018-09-13T18:23:52.251Z,10.53
2018-09-13T18:26:19.599Z,10.87
2018-09-13T18:28:46.650Z,7.90
2018-09-13T18:31:13.618Z,8.27
2018-09-13T18:33:40.845Z,5.33
2018-09-13T18:36:07.865Z,14.03
2018-09-13T18:38:34.942Z,8.80
2018-09-13T18:41:02.265Z,14.33
2018-09-13T18:43:29.250Z,15.80
2018-09-13T18:45:56.283Z,10.20
2018-09-13T18:51:14.226Z,7.73
2018-09-13T18:53:41.236Z,8.27
2018-09-13T18:56:08.293Z,9.63
2018-09-13T18:58:35.570Z,9.63
2018-09-13T19:01:02.590Z,7.70
2018-09-13T19:03:29.661Z,9.10
2018-09-13T19:05:56.978Z,9.17
2018-09-13T19:08:24.038Z,9.20
2018-09-13T19:10:50.994Z,8.20
2018-09-13T19:13:18.291Z,9.63
2018-09-13T19:15:45.317Z,14.07
2018-09-13T19:18:12.326Z,8.60
2018-09-13T19:20:39.616Z,11.37
2018-09-13T19:23:06.623Z,14.43
2018-09-13T19:25:33.763Z,6.63
2018-09-13T19:28:01.165Z,12.63
2018-09-13T19:30:28.117Z,7.93
2018-09-13T19:32:55.138Z,8.10
2018-09-13T19:35:22.401Z,17.00
2018-09-13T19:37:49.444Z,11.17
2018-09-13T19:40:16.515Z,9.00
2018-09-13T19:42:44.266Z,6.10
2018-09-13T19:45:11.241Z,7.97
2018-09-13T19:47:38.310Z,7.40
2018-09-13T19:50:05.613Z,6.50
2018-09-13T19:52:32.728Z,9.37
2018-09-13T19:54:59.797Z,9.00
2018-09-13T19:57:27.517Z,7.07
2018-09-13T19:59:54.719Z,8.60
2018-09-13T20:02:21.775Z,8.10
2018-09-13T20:04:49.130Z,10.10
2018-09-13T20:07:16.188Z,8.10
2018-09-13T20:09:43.258Z,7.47
2018-09-13T20:12:10.754Z,9.40
2018-09-13T20:14:37.772Z,14.40
2018-09-13T20:17:04.829Z,9.37
2018-09-13T20:19:32.108Z,9.37
2018-09-13T20:27:43.629Z,9.80
2018-09-13T20:30:11.035Z,9.33
2018-09-13T20:32:38.083Z,8.73
2018-09-13T20:35:05.421Z,8.97
2018-09-13T20:37:32.414Z,11.23
2018-09-13T20:40:02.016Z,12.40
2018-09-13T20:42:31.302Z,7.83
2018-09-13T20:45:00.728Z,10.63
2018-09-13T20:47:36.215Z,8.57
2018-09-13T20:50:03.245Z,12.27
2018-09-13T20:52:30.282Z,8.87
2018-09-13T20:54:57.664Z,12.10
2018-09-13T20:57:29.773Z,8.60
2018-09-13T21:00:08.123Z,7.73
2018-09-13T21:02:40.572Z,7.60
2018-09-13T21:05:11.286Z,5.60
2018-09-13T21:07:38.343Z,5.93
2018-09-13T21:10:05.669Z,6.27
2018-09-13T21:12:33.370Z,9.40
2018-09-13T21:15:00.413Z,5.93
2018-09-13T21:17:27.473Z,5.90
2018-09-13T21:19:54.856Z,6.70
2018-09-13T21:22:21.871Z,6.70
2018-09-13T21:24:48.797Z,19.43
2018-09-13T21:27:18.368Z,15.67
2018-09-13T21:29:45.786Z,8.67
2018-09-13T21:32:16.228Z,5.33
2018-09-13T21:34:44.095Z,7.93
2018-09-13T21:37:11.167Z,7.23
2018-09-13T21:39:38.214Z,7.23
2018-09-13T21:42:05.999Z,6.50
2018-09-13T21:44:33.095Z,8.50
2018-09-13T21:47:00.196Z,7.13
2018-09-13T21:49:27.741Z,5.23
2018-09-13T21:51:54.790Z,5.80
2018-09-13T21:54:22.596Z,6.50
2018-09-13T21:56:49.809Z,7.60
2018-09-13T21:59:17.005Z,6.60
2018-09-13T22:01:44.531Z,7.53
2018-09-13T22:04:12.094Z,7.10
2018-09-13T22:06:39.071Z,8.60
2018-09-13T22:09:08.496Z,8.30
2018-09-13T22:11:36.805Z,8.00
2018-09-13T22:14:03.947Z,10.00
2018-09-13T22:16:31.053Z,8.97
2018-09-13T22:18:58.557Z,9.70
2018-09-13T22:21:25.744Z,9.57
2018-09-13T22:23:52.794Z,8.97
2018-09-13T22:26:20.292Z,8.90
2018-09-13T22:28:47.392Z,9.80
2018-09-13T22:31:14.611Z,9.77
2018-09-13T22:33:42.261Z,8.23
2018-09-13T22:36:09.684Z,8.83
2018-09-13T22:38:36.707Z,9.30
2018-09-13T22:41:04.108Z,8.60
2018-09-13T22:43:36.998Z,8.30
2018-09-13T22:46:04.487Z,8.03
2018-09-13T22:48:31.625Z,9.83
2018-09-13T22:50:58.857Z,9.80
2018-09-13T22:53:26.452Z,8.80
2018-09-13T22:55:53.538Z,9.70
2018-09-13T22:58:20.850Z,8.00
2018-09-13T23:00:48.813Z,8.80
2018-09-13T23:03:15.887Z,8.20
2018-09-13T23:05:42.982Z,8.07
2018-09-13T23:08:10.538Z,7.30
2018-09-13T23:10:37.644Z,7.40
2018-09-13T23:13:04.827Z,7.90
2018-09-13T23:15:32.329Z,7.23
2018-09-13T23:18:00.179Z,7.53
2018-09-13T23:20:27.498Z,8.10
2018-09-13T23:22:55.167Z,8.13
2018-09-13T23:25:22.486Z,8.20
2018-09-13T23:27:49.605Z,8.10
2018-09-13T23:30:17.060Z,8.30
2018-09-13T23:32:44.198Z,10.20
2018-09-13T23:35:11.347Z,7.33
2018-09-13T23:37:38.907Z,8.40
2018-09-13T23:40:06.162Z,7.30
2018-09-13T23:42:33.315Z,7.27
2018-09-13T23:45:00.634Z,7.40
2018-09-13T23:47:27.650Z,7.00
2018-09-13T23:49:54.634Z,6.87
2018-09-13T23:52:24.085Z,7.03
2018-09-13T23:54:51.178Z,6.10
2018-09-13T23:57:18.147Z,6.67
2018-09-13T23:59:45.641Z,6.00
